• Join FlightAware (Why Join?)
  • Login
  • US Flag 
10:06PM EDT


 

Airport Tracker/Info


-or-


 

Live Flight TrackerFlight Track Log ✈ N325P ✈ 23-Jul-2013 ✈ KJAC - KSBA

Flight Track Log - Related Links

Times and Time Zones

All times are in EDT time to prevent confusion due to time zone crossing. See the N325P flight status page for this flight to view local times or setup timezone preferences in your user account.

Time Position Orientation Groundspeed Altitude Reporting Facility
EDT Latitude Longitude Course Direction KTS MPH feet Rate Location/Type
12:01PM 43.5778 -110.7508 216° Southwest 155 178 7,000  Level Salt Lake Center
12:02PM 43.5439 -110.7731 205° Southwest 136 157 7,600 600 Climbing Salt Lake Center
12:03PM 43.5078 -110.7989 207° Southwest 141 162 8,300 660 Climbing Salt Lake Center
12:04PM 43.4731 -110.8275 211° Southwest 144 166 9,000 600 Climbing Salt Lake Center
12:05PM 43.3144 -110.9127 206° Southwest  Level FlightAware Approximate
12:05PM 43.4286 -110.8547 204° Southwest 145 167 9,600  Level Salt Lake Center
12:06PM 43.2672 -110.9441 206° Southwest  Level FlightAware Approximate
12:06PM 43.3883 -110.8797 204° Southwest 151 174 10,200  Level Salt Lake Center
12:07PM 43.2214 -110.9787 216° Southwest  Level FlightAware Approximate
12:07PM 43.3486 -110.9022 202° Southwest 154 177 10,900  Level Salt Lake Center
12:08PM 43.3097 -110.9250 203° Southwest 153 176 11,400 540 Climbing Salt Lake Center
12:09PM 43.2719 -110.9511 207° Southwest 152 175 12,100 540 Climbing Salt Lake Center
12:10PM 43.2331 -110.9756 205° Southwest 154 177 12,600 540 Climbing Salt Lake Center
12:11PM 43.2000 -111.0206 225° Southwest 140 161 13,300 540 Climbing Salt Lake Center
12:12PM 43.1714 -111.0611 226° Southwest 144 166 13,800 420 Climbing Salt Lake Center
12:14PM 43.1436 -111.1014 227° Southwest 147 169 14,200 420 Climbing Salt Lake Center
12:15PM 43.1161 -111.1431 228° Southwest 147 169 14,700 480 Climbing Salt Lake Center
12:16PM 43.0894 -111.1861 230° Southwest 147 169 15,200 480 Climbing Salt Lake Center
12:17PM 43.0625 -111.2289 229° Southwest 148 170 15,800 540 Climbing Salt Lake Center
12:18PM 43.0356 -111.2722 230° Southwest 148 170 16,400 480 Climbing Salt Lake Center
12:19PM 43.0028 -111.3194 227° Southwest 145 167 16,800 420 Climbing Salt Lake Center
12:20PM 42.9742 -111.3633 228° Southwest 149 171 17,300 360 Climbing Salt Lake Center
12:21PM 42.9414 -111.4008 220° Southwest 153 176 17,600 240 Climbing Salt Lake Center
12:22PM 42.9125 -111.4431 227° Southwest 153 176 17,800 60 Climbing Salt Lake Center
12:23PM 42.8850 -111.4869 229° Southwest 152 175 17,800 60 Level Salt Lake Center
12:24PM 42.8561 -111.5297 227° Southwest 153 176 18,000 60 Climbing Salt Lake Center
12:25PM 42.8181 -111.5831 226° Southwest 164 189 18,000  Level Salt Lake Center
12:26PM 42.7836 -111.6275 223° Southwest 171 197 18,000  Level Salt Lake Center
12:27PM 42.7447 -111.6719 220° Southwest 176 203 18,000  Level Salt Lake Center
12:28PM 42.7089 -111.7206 225° Southwest 176 203 18,000  Level Salt Lake Center
12:29PM 42.6769 -111.7697 229° Southwest 175 201 18,000  Level Salt Lake Center
12:30PM 42.6447 -111.8194 229° Southwest 175 201 18,000  Level Salt Lake Center
12:31PM 42.6136 -111.8700 230° Southwest 175 201 18,000  Level Salt Lake Center
12:32PM 42.5814 -111.9192 228° Southwest 174 200 18,000  Level Salt Lake Center
12:33PM 42.5414 -111.9775 227° Southwest 176 203 18,000  Level Salt Lake Center
12:34PM 42.5072 -112.0256 226° Southwest 177 204 18,000  Level Salt Lake Center
12:35PM 42.4731 -112.0694 223° Southwest 173 199 18,000  Level Salt Lake Center
12:36PM 42.4369 -112.1186 225° Southwest 181 208 18,000  Level Salt Lake Center
12:37PM 42.4017 -112.1653 224° Southwest 180 207 18,000  Level Salt Lake Center
12:38PM 42.3664 -112.2158 227° Southwest 182 209 18,000  Level Salt Lake Center
12:40PM 42.3153 -112.2654 226° Southwest  Level FlightAware Approximate
12:40PM 42.2892 -112.3261 226° Southwest 187 215 18,000  Level Salt Lake Center
12:41PM 42.2542 -112.3736 225° Southwest 180 207 18,000  Level Salt Lake Center
12:42PM 42.2200 -112.4233 227° Southwest 181 208 18,000  Level Salt Lake Center
12:43PM 42.1847 -112.4733 226° Southwest 184 212 18,000  Level Salt Lake Center
12:45PM 42.1450 -112.5356 229° Southwest 183 211 18,000  Level Salt Lake Center
12:46PM 42.1147 -112.5886 232° Southwest 180 207 18,000  Level Salt Lake Center
12:47PM 42.0847 -112.6417 233° Southwest 179 206 18,000  Level Salt Lake Center
12:48PM 42.0544 -112.6975 234° Southwest 182 209 18,000  Level Salt Lake Center
12:49PM 42.0236 -112.7511 232° Southwest 181 208 18,000  Level Salt Lake Center
12:50PM 41.9939 -112.8042 233° Southwest 180 207 18,000  Level Salt Lake Center
12:51PM 41.9556 -112.8681 231° Southwest 183 211 18,000  Level Salt Lake Center
12:52PM 41.9236 -112.9192 230° Southwest 181 208 18,000  Level Salt Lake Center
12:53PM 41.8922 -112.9719 231° Southwest 182 209 18,000  Level Salt Lake Center
12:54PM 41.8603 -113.0233 230° Southwest 180 207 18,000  Level Salt Lake Center
12:55PM 41.8272 -113.0772 231° Southwest 184 212 18,000  Level Salt Lake Center
12:56PM 41.7947 -113.1300 230° Southwest 185 213 18,000  Level Salt Lake Center
12:57PM 41.7564 -113.1944 231° Southwest 184 212 18,000  Level Salt Lake Center
12:58PM 41.7231 -113.2481 230° Southwest 186 214 18,000  Level Salt Lake Center
12:59PM 41.6908 -113.3036 232° Southwest 189 217 18,000  Level Salt Lake Center
01:00PM 41.6578 -113.3572 230° Southwest 187 215 18,000  Level Salt Lake Center
01:01PM 41.6256 -113.4119 232° Southwest 187 215 18,000  Level Salt Lake Center
01:02PM 41.5936 -113.4672 232° Southwest 189 217 18,000  Level Salt Lake Center
01:03PM 41.5547 -113.5303 231° Southwest 186 214 18,000  Level Salt Lake Center
01:04PM 41.5231 -113.5819 231° Southwest 184 212 18,000  Level Salt Lake Center
01:05PM 41.4903 -113.6353 231° Southwest 184 212 18,000  Level Salt Lake Center
01:06PM 41.4539 -113.6894 228° Southwest 189 217 18,000  Level Salt Lake Center
01:07PM 41.4228 -113.7419 232° Southwest 186 214 18,000  Level Salt Lake Center
01:08PM 41.3889 -113.7967 230° Southwest 188 216 18,000  Level Salt Lake Center
01:09PM 41.3478 -113.8594 229° Southwest 187 215 18,000  Level Salt Lake Center
01:10PM 41.3122 -113.9100 227° Southwest 187 215 18,000  Level Salt Lake Center
01:11PM 41.2756 -113.9594 225° Southwest 187 215 18,000  Level Salt Lake Center
01:12PM 41.2419 -114.0094 228° Southwest 184 212 18,000  Level Salt Lake Center
01:13PM 41.2056 -114.0561 224° Southwest 182 209 18,000  Level Salt Lake Center
01:14PM 41.1669 -114.1039 223° Southwest 186 214 18,000  Level Salt Lake Center
01:16PM 41.1231 -114.1619 225° Southwest 187 215 18,000  Level Salt Lake Center
01:17PM 41.0861 -114.2103 225° Southwest 187 215 18,000  Level Salt Lake Center
01:18PM 41.0497 -114.2583 225° Southwest 186 214 18,000  Level Salt Lake Center
01:19PM 41.0136 -114.3069 225° Southwest 185 213 18,000  Level Salt Lake Center
01:20PM 40.9772 -114.3569 226° Southwest 187 215 18,000  Level Salt Lake Center
01:21PM 40.9403 -114.4061 225° Southwest 188 216 18,000  Level Salt Lake Center
01:22PM 40.9050 -114.4589 229° Southwest 185 213 18,000  Level Salt Lake Center
01:23PM 40.8633 -114.5131 225° Southwest 185 213 18,000  Level Salt Lake Center
01:24PM 40.8292 -114.5617 227° Southwest 187 215 18,000  Level Salt Lake Center
01:25PM 40.7869 -114.6147 224° Southwest 187 215 18,000  Level Salt Lake Center
01:26PM 40.7528 -114.6608 226° Southwest 187 215 18,000  Level Salt Lake Center
01:27PM 40.7153 -114.7108 225° Southwest 190 219 18,000  Level Salt Lake Center
01:28PM 40.6706 -114.7694 225° Southwest 190 219 18,000  Level Salt Lake Center
01:29PM 40.6325 -114.8200 225° Southwest 190 219 18,000  Level Salt Lake Center
01:30PM 40.5964 -114.8672 225° Southwest 192 221 18,000  Level Salt Lake Center
01:31PM 40.5544 -114.9217 225° Southwest 190 219 18,000  Level Salt Lake Center
01:32PM 40.5175 -114.9692 224° Southwest 192 221 18,000  Level Salt Lake Center
01:33PM 40.4744 -115.0244 224° Southwest 193 222 18,000  Level Salt Lake Center
01:34PM 40.4392 -115.0719 226° Southwest 191 220 18,000  Level Salt Lake Center
01:35PM 40.4019 -115.1194 224° Southwest 194 223 18,000  Level Salt Lake Center
01:36PM 40.3578 -115.1747 224° Southwest 195 224 18,000  Level Salt Lake Center
01:37PM 40.3197 -115.2236 224° Southwest 198 228 18,000  Level Salt Lake Center
01:38PM 40.2756 -115.2808 225° Southwest 199 229 18,000  Level Salt Lake Center
01:39PM 40.2392 -115.3294 226° Southwest 198 228 18,000  Level Salt Lake Center
01:40PM 40.1953 -115.3856 224° Southwest 197 227 18,000  Level Salt Lake Center
01:41PM 40.1586 -115.4347 226° Southwest 197 227 18,000  Level Salt Lake Center
01:42PM 40.1153 -115.4911 225° Southwest 197 227 18,000  Level Salt Lake Center
01:43PM 40.0761 -115.5392 223° Southwest 199 229 18,000  Level Salt Lake Center
01:44PM 40.0317 -115.5936 223° Southwest 197 227 18,000  Level Salt Lake Center
01:45PM 39.9933 -115.6411 224° Southwest 198 228 18,000  Level Salt Lake Center
01:47PM 39.9478 -115.6714 207° Southwest 194 223 18,000  Level Salt Lake Center
01:48PM 39.8978 -115.7200 217° Southwest 197 227 18,000  Level Salt Lake Center
01:49PM 39.8572 -115.7639 220° Southwest 197 227 18,000  Level Salt Lake Center
01:50PM 39.8111 -115.8158 221° Southwest 196 226 18,000  Level Salt Lake Center
01:51PM 39.7697 -115.8636 222° Southwest 203 234 18,000  Level Salt Lake Center
01:52PM 39.7236 -115.9136 220° Southwest 197 227 18,000  Level Salt Lake Center
01:53PM 39.6844 -115.9556 219° Southwest 193 222 18,000  Level Salt Lake Center
01:54PM 39.6358 -116.0019 216° Southwest 193 222 18,000  Level Salt Lake Center
01:55PM 39.5947 -116.0442 218° Southwest 194 223 18,000  Level Salt Lake Center
01:56PM 39.5475 -116.0881 216° Southwest 189 217 18,000  Level Salt Lake Center
01:57PM 39.5058 -116.1294 217° Southwest 193 222 18,000  Level Salt Lake Center
01:58PM 39.4647 -116.1700 217° Southwest 194 223 18,000  Level Salt Lake Center
01:59PM 39.4175 -116.2153 217° Southwest 190 219 18,000  Level Salt Lake Center
02:00PM 39.3764 -116.2578 219° Southwest 194 223 18,000  Level Salt Lake Center
02:01PM 39.3294 -116.3014 216° Southwest 189 217 18,000  Level Salt Lake Center
02:02PM 39.2892 -116.3453 220° Southwest 194 223 18,000  Level Salt Lake Center
02:03PM 39.2425 -116.3944 219° Southwest 194 223 18,000  Level Salt Lake Center
02:04PM 39.2050 -116.4428 225° Southwest 196 226 18,000  Level Salt Lake Center
02:05PM 39.1614 -116.5014 226° Southwest 199 229 18,000  Level Salt Lake Center
02:06PM 39.1261 -116.5472 225° Southwest 192 221 18,000  Level Salt Lake Center
02:07PM 39.0847 -116.6061 228° Southwest 194 223 18,000  Level Salt Lake Center
02:08PM 39.0522 -116.6500 226° Southwest 194 223 18,000  Level Salt Lake Center
02:09PM 39.0036 -116.7128 225° Southwest 203 234 18,000  Level Salt Lake Center
02:10PM 38.9653 -116.7636 226° Southwest 200 230 18,000  Level Salt Lake Center
02:11PM 38.9267 -116.8150 226° Southwest 199 229 18,000  Level Salt Lake Center
02:12PM 38.8878 -116.8681 227° Southwest 202 232 18,000 60 Level Salt Lake Center
02:13PM 38.8636 -116.8992 225° Southwest 202 232 18,100  Climbing Oakland Center
02:14PM 38.8247 -116.9475 224° Southwest 198 228 18,000 -60 Descending Oakland Center
02:15PM 38.7844 -116.9978 224° Southwest 200 230 18,000  Level Oakland Center
02:16PM 38.7436 -117.0503 225° Southwest 206 237 18,000  Level Oakland Center
02:17PM 38.7061 -117.1019 227° Southwest 200 230 18,000  Level Oakland Center
02:18PM 38.6853 -117.1325 229° Southwest 196 226 18,000  Level Salt Lake Center
02:19PM 38.6500 -117.1817 227° Southwest 190 219 18,000  Level Salt Lake Center
02:20PM 38.6144 -117.2294 226° Southwest 187 215 18,000  Level Salt Lake Center
02:21PM 38.5778 -117.2764 225° Southwest 187 215 18,000  Level Salt Lake Center
02:22PM 38.5333 -117.3319 224° Southwest 187 215 18,000  Level Salt Lake Center
02:23PM 38.4972 -117.3792 226° Southwest 187 215 18,000  Level Salt Lake Center
02:24PM 38.4608 -117.4258 225° Southwest 186 214 18,000  Level Salt Lake Center
02:25PM 38.4253 -117.4728 226° Southwest 186 214 18,000  Level Salt Lake Center
02:26PM 38.3892 -117.5197 226° Southwest 186 214 18,000  Level Salt Lake Center
02:27PM 38.3528 -117.5669 226° Southwest 187 215 18,000  Level Salt Lake Center
02:28PM 38.3097 -117.6219 225° Southwest 185 213 18,000  Level Salt Lake Center
02:29PM 38.2589 -117.6872 225° Southwest 185 213 18,000  Level Oakland Center
02:30PM 38.2219 -117.7336 225° Southwest 187 215 18,000  Level Oakland Center
02:31PM 38.1853 -117.7806 225° Southwest 188 216 18,000  Level Oakland Center
02:32PM 38.1486 -117.8258 224° Southwest 185 213 18,000  Level Oakland Center
02:33PM 38.1128 -117.8719 225° Southwest 183 211 18,000  Level Oakland Center
02:34PM 38.0700 -117.9278 226° Southwest 183 211 18,000  Level Oakland Center
02:35PM 38.0344 -117.9744 226° Southwest 184 212 18,000  Level Oakland Center
02:37PM 37.9983 -118.0197 225° Southwest 183 211 18,000  Level Oakland Center
02:38PM 37.9619 -118.0653 225° Southwest 182 209 18,000  Level Oakland Center
02:39PM 37.9269 -118.1103 225° Southwest 180 207 18,000  Level Oakland Center
02:40PM 37.8903 -118.1539 223° Southwest 178 205 18,000  Level Oakland Center
02:41PM 37.8303 -118.2317 226° Southwest 175 201 18,000  Level Los Angeles Center
02:42PM 37.7953 -118.2758 225° Southwest 176 203 18,000  Level Los Angeles Center
02:43PM 37.7606 -118.3225 227° Southwest 180 207 18,000  Level Los Angeles Center
02:45PM 37.7092 -118.3858 224° Southwest 183 211 18,000  Level Oakland Center
02:46PM 37.6725 -118.4306 224° Southwest 183 211 18,000  Level Oakland Center
02:47PM 37.6381 -118.4775 227° Southwest 182 209 18,000  Level Oakland Center
02:48PM 37.5994 -118.5225 223° Southwest 185 213 18,000  Level Oakland Center
02:49PM 37.5639 -118.5681 225° Southwest 185 213 18,000  Level Oakland Center
02:50PM 37.5272 -118.6133 224° Southwest 184 212 18,000  Level Oakland Center
02:51PM 37.4833 -118.6672 224° Southwest 184 212 18,000  Level Oakland Center
02:52PM 37.4464 -118.7122 224° Southwest 183 211 18,000  Level Oakland Center
02:53PM 37.4075 -118.7567 222° Southwest 186 214 18,000  Level Oakland Center
02:54PM 37.3664 -118.7864 210° Southwest 180 207 18,000  Level Oakland Center
02:55PM 37.3122 -118.7961 188° South 187 215 18,000  Level Oakland Center
02:56PM 37.2625 -118.8064 189° South 184 212 18,000  Level Oakland Center
02:57PM 37.2119 -118.8147 187° South 183 211 18,000  Level Oakland Center
02:58PM 37.1617 -118.8233 188° South 183 211 18,000  Level Oakland Center
02:59PM 37.1117 -118.8314 187° South 182 209 18,100 360 Climbing Oakland Center
03:00PM 37.0678 -118.8358 185° South 164 189 18,800 420 Climbing Oakland Center
03:01PM 37.0161 -118.8453 188° South 158 182 19,000 60 Climbing Oakland Center
03:02PM 36.9708 -118.8536 188° South 163 188 19,000  Level Oakland Center
03:03PM 36.9222 -118.8661 192° South 174 200 19,000  Level Oakland Center
03:04PM 36.8719 -118.8708 184° South 179 206 19,000  Level Oakland Center
03:05PM 36.8236 -118.8764 185° South 177 204 19,000  Level Oakland Center
03:06PM 36.7764 -118.8881 191° South 174 200 19,000  Level Oakland Center
03:07PM 36.7289 -118.8964 188° South 172 198 19,000  Level Oakland Center
03:08PM 36.6814 -118.9058 189° South 173 199 19,000  Level Oakland Center
03:09PM 36.6328 -118.9131 187° South 174 200 19,000  Level Oakland Center
03:10PM 36.5761 -118.9219 187° South 172 198 19,000  Level Oakland Center
03:11PM 36.5275 -118.9300 188° South 174 200 19,000  Level Oakland Center
03:12PM 36.4797 -118.9353 185° South 172 198 19,000  Level Oakland Center
03:13PM 36.4328 -118.9450 189° South 171 197 19,000  Level Oakland Center
03:14PM 36.3817 -118.9522 186° South 180 207 19,000  Level Oakland Center
03:15PM 36.3314 -118.9603 187° South 181 208 19,000  Level Oakland Center
03:17PM 36.2814 -118.9681 187° South 181 208 19,000  Level Oakland Center
03:18PM 36.2303 -118.9761 187° South 183 211 19,000  Level Oakland Center
03:19PM 36.1711 -118.9861 188° South 180 207 19,000  Level Oakland Center
03:20PM 36.1206 -118.9953 188° South 182 209 19,000  Level Oakland Center
03:21PM 36.0769 -119.0206 205° Southwest 179 206 19,000  Level Los Angeles Center
03:22PM 36.0344 -119.0550 213° Southwest 181 208 19,000  Level Los Angeles Center
03:23PM 35.9919 -119.0900 214° Southwest 184 212 19,000  Level Los Angeles Center
03:24PM 35.9481 -119.1219 211° Southwest 183 211 19,000  Level Los Angeles Center
03:25PM 35.8942 -119.1597 210° Southwest 186 214 19,000  Level Los Angeles Center
03:26PM 35.8583 -119.1839 209° Southwest 184 212 19,000  Level Oakland Center
03:27PM 35.8047 -119.2181 207° Southwest 182 209 19,000  Level Oakland Center
03:28PM 35.7606 -119.2492 210° Southwest 183 211 19,000  Level Los Angeles Center
03:29PM 35.7167 -119.2797 209° Southwest 181 208 19,000  Level Los Angeles Center
03:30PM 35.6806 -119.3050 210° Southwest 183 211 19,000  Level Los Angeles Center
03:31PM 35.6269 -119.3425 210° Southwest 184 212 19,000  Level Los Angeles Center
03:32PM 35.5736 -119.3806 210° Southwest 183 211 19,000  Level Los Angeles Center
03:33PM 35.5283 -119.4111 209° Southwest 184 212 19,000  Level Los Angeles Center
03:34PM 35.4842 -119.4414 209° Southwest 182 209 19,000  Level Los Angeles Center
03:35PM 35.4394 -119.4728 210° Southwest 183 211 19,000  Level Los Angeles Center
03:36PM 35.3950 -119.5042 210° Southwest 184 212 19,000  Level Los Angeles Center
03:37PM 35.3506 -119.5344 209° Southwest 183 211 19,000  Level Los Angeles Center
03:38PM 35.3061 -119.5653 210° Southwest 182 209 19,000 -300 Level Los Angeles Center
03:39PM 35.2500 -119.6017 208° Southwest 187 215 18,500 -540 Descending Los Angeles Center
03:40PM 35.1983 -119.6381 210° Southwest 208 239 18,000 -780 Descending Los Angeles Center
03:41PM 35.1475 -119.6750 211° Southwest 212 244 17,000 -900 Descending Los Angeles Center
03:42PM 35.0944 -119.7100 208° Southwest 215 247 16,200 -780 Descending Los Angeles Center
03:43PM 35.0414 -119.7456 209° Southwest 216 249 15,500 -780 Descending Los Angeles Center
03:45PM 34.9750 -119.7933 211° Southwest 211 243 14,500 -780 Descending Los Angeles Center
03:45PM 34.9364 -119.8081 197° South 213 245 13,900 -900 Descending Los Angeles Center
03:46PM 34.8656 -119.8089 181° South 215 247 12,800 -960 Descending Los Angeles Center
03:47PM 34.8064 -119.8072 179° South 212 244 12,000 -840 Descending Los Angeles Center
03:48PM 34.7444 -119.8056 179° South 208 239 11,100 -840 Descending Los Angeles Center
03:49PM 34.6903 -119.8047 179° South 204 235 10,400 -720 Descending Los Angeles Center
03:51PM 34.6353 -119.8031 179° South 201 231 9,600 -840 Descending Los Angeles Center
03:51PM 34.5786 -119.7992 177° South 200 230 8,800 -1,380 Descending Los Angeles Center
03:52PM 34.5244 -119.7881 170° South 186 214 7,000 -1,800 Descending Los Angeles Center
03:54PM 34.4708 -119.7761 170° South 185 213 5,000 -1,680 Descending Los Angeles Center
03:55PM 34.4367 -119.7722 175° South 139 160 3,600 -1,560 Descending Los Angeles Center
03:56PM 34.4053 -119.7875 202° Southwest 130 150 2,100 -1,440 Descending Los Angeles Center
03:57PM 34.4219 -119.8133 308° West 116 133 800 -1,320 Descending Los Angeles Center
03:59PM 34.4167 -119.8333 192° South  Level FlightAware Approximate